createdAt,value
2024-05-09T00:01:32.358Z,14.05
2024-05-09T00:04:01.918Z,14.11
2024-05-09T00:06:31.403Z,14.17
2024-05-09T00:09:00.762Z,13.98
2024-05-09T00:11:30.185Z,14.07
2024-05-09T00:13:59.608Z,14.03
2024-05-09T00:16:31.618Z,13.71
2024-05-09T00:19:01.066Z,13.64
2024-05-09T00:21:30.660Z,13.63
2024-05-09T00:24:00.071Z,13.56
2024-05-09T00:26:29.578Z,13.59
2024-05-09T00:28:59.109Z,13.78
2024-05-09T00:31:31.066Z,13.91
2024-05-09T00:34:00.752Z,13.92
2024-05-09T00:36:30.245Z,14.00
2024-05-09T00:38:59.577Z,14.00
2024-05-09T00:41:29.062Z,13.91
2024-05-09T00:43:58.521Z,13.97
2024-05-09T00:46:31.198Z,13.97
2024-05-09T00:49:00.760Z,13.98
2024-05-09T00:51:30.450Z,14.00
2024-05-09T00:54:00.073Z,13.95
2024-05-09T00:56:29.556Z,13.94
2024-05-09T00:58:59.125Z,13.93
2024-05-09T01:01:31.637Z,14.00
2024-05-09T01:04:02.070Z,14.03
2024-05-09T01:06:31.495Z,13.98
2024-05-09T01:09:00.851Z,14.01
2024-05-09T01:11:36.186Z,14.03
2024-05-09T01:14:05.736Z,14.07
2024-05-09T01:16:37.991Z,14.08
2024-05-09T01:19:08.240Z,14.04
2024-05-09T01:21:37.674Z,14.03
2024-05-09T01:24:09.805Z,14.05
2024-05-09T01:26:39.156Z,13.90
2024-05-09T01:29:08.570Z,13.88
2024-05-09T01:31:38.028Z,13.77
2024-05-09T01:34:07.494Z,13.67
2024-05-09T01:36:36.872Z,13.71
2024-05-09T01:39:08.945Z,13.71
2024-05-09T01:41:38.328Z,13.64
2024-05-09T01:44:08.066Z,13.67
2024-05-09T01:46:37.483Z,13.66
2024-05-09T01:49:07.958Z,13.63
2024-05-09T01:51:37.456Z,13.69
2024-05-09T01:54:09.485Z,13.57
2024-05-09T01:56:38.944Z,13.43
2024-05-09T01:59:10.401Z,13.27
2024-05-09T02:01:56.205Z,13.05
2024-05-09T02:04:27.253Z,13.08
2024-05-09T02:06:56.748Z,13.01
2024-05-09T02:09:28.717Z,12.93
2024-05-09T02:11:58.277Z,12.84
2024-05-09T02:14:28.057Z,12.78
2024-05-09T02:16:57.479Z,12.69
2024-05-09T02:19:26.913Z,12.32
2024-05-09T02:21:56.331Z,12.18
2024-05-09T02:24:28.393Z,12.23
2024-05-09T02:26:57.767Z,12.32
2024-05-09T02:29:27.270Z,12.52
2024-05-09T02:31:56.800Z,12.60
2024-05-09T02:34:26.281Z,12.59
2024-05-09T02:36:56.267Z,12.54
2024-05-09T02:39:25.820Z,12.50
2024-05-09T02:41:55.186Z,12.46
2024-05-09T02:44:22.028Z,12.40
2024-05-09T02:46:52.111Z,12.35
2024-05-09T02:49:19.032Z,12.20
2024-05-09T02:51:48.529Z,12.31
2024-05-09T02:54:15.278Z,12.26
2024-05-09T02:56:47.230Z,12.20
2024-05-09T02:59:14.606Z,12.23
2024-05-09T03:01:44.815Z,12.17
2024-05-09T03:04:11.746Z,12.20
2024-05-09T03:06:42.948Z,12.09
2024-05-09T03:09:09.848Z,12.13
2024-05-09T03:11:40.575Z,12.16
2024-05-09T03:14:10.110Z,12.07
2024-05-09T03:16:40.348Z,12.02
2024-05-09T03:19:07.223Z,12.08
2024-05-09T03:21:40.737Z,12.06
2024-05-09T03:24:07.750Z,11.90
2024-05-09T03:26:37.255Z,11.93
2024-05-09T03:29:04.160Z,11.97
2024-05-09T03:31:36.175Z,11.99
2024-05-09T03:34:03.096Z,11.94
2024-05-09T03:36:32.536Z,11.93
2024-05-09T03:39:01.883Z,11.83
2024-05-09T03:41:31.375Z,11.68
2024-05-09T03:44:00.898Z,11.73
2024-05-09T03:46:30.307Z,11.64
2024-05-09T03:48:59.794Z,11.65
2024-05-09T03:51:29.215Z,11.74
2024-05-09T03:53:56.067Z,11.74
2024-05-09T03:56:25.570Z,11.75
2024-05-09T03:58:52.486Z,11.73
2024-05-09T04:01:21.888Z,11.76
2024-05-09T04:03:48.827Z,11.81
2024-05-09T04:06:25.683Z,11.85
2024-05-09T04:08:52.446Z,11.85
2024-05-09T04:11:22.028Z,11.83
2024-05-09T04:13:49.018Z,11.83
2024-05-09T04:16:18.483Z,11.89
2024-05-09T04:18:45.327Z,11.91
2024-05-09T04:21:14.770Z,11.95
2024-05-09T04:23:44.239Z,11.91
2024-05-09T04:26:13.959Z,11.78
2024-05-09T04:28:40.880Z,11.69
2024-05-09T04:31:10.312Z,11.82
2024-05-09T04:33:37.240Z,11.93
2024-05-09T04:36:07.185Z,12.01
2024-05-09T04:38:34.032Z,12.09
2024-05-09T04:41:06.464Z,12.09
2024-05-09T04:43:35.190Z,12.11
2024-05-09T04:46:04.574Z,12.16
2024-05-09T04:48:31.450Z,12.26
2024-05-09T04:51:00.905Z,12.32
2024-05-09T04:53:27.769Z,12.43
2024-05-09T04:55:57.253Z,12.54
2024-05-09T04:58:26.767Z,12.63
2024-05-09T05:00:56.206Z,12.67
2024-05-09T05:03:23.272Z,12.81
2024-05-09T05:05:53.796Z,12.87
2024-05-09T05:08:21.025Z,12.88
2024-05-09T05:10:50.738Z,12.88
2024-05-09T05:13:20.765Z,13.02
2024-05-09T05:15:57.218Z,13.08
2024-05-09T05:18:25.644Z,13.22
2024-05-09T05:20:55.337Z,13.26
2024-05-09T05:23:25.577Z,13.43
2024-05-09T05:25:53.466Z,13.58
2024-05-09T05:28:23.918Z,13.60
2024-05-09T05:30:53.401Z,13.66
2024-05-09T05:33:23.451Z,13.68
2024-05-09T05:35:50.508Z,13.75
2024-05-09T05:38:23.769Z,13.97
2024-05-09T05:40:52.971Z,14.18
2024-05-09T05:43:22.678Z,14.34
2024-05-09T05:45:49.688Z,14.43
2024-05-09T05:48:21.811Z,14.57
2024-05-09T05:50:48.795Z,14.63
2024-05-09T05:53:18.303Z,14.70
2024-05-09T05:55:45.240Z,14.69
2024-05-09T05:58:15.226Z,14.89
2024-05-09T06:00:42.794Z,15.04
2024-05-09T06:03:13.454Z,15.06
2024-05-09T06:05:45.668Z,15.23
2024-05-09T06:08:15.186Z,15.23
2024-05-09T06:10:42.574Z,15.45
2024-05-09T06:13:13.748Z,15.45
2024-05-09T06:15:41.537Z,15.57
2024-05-09T06:18:12.499Z,15.59
2024-05-09T06:20:41.441Z,15.72
2024-05-09T06:23:14.305Z,15.94
2024-05-09T06:25:42.215Z,16.21
2024-05-09T06:28:11.839Z,16.25
2024-05-09T06:30:42.036Z,16.35
2024-05-09T06:33:15.312Z,16.43
2024-05-09T06:35:43.615Z,16.32
2024-05-09T06:38:15.871Z,16.56
2024-05-09T06:40:44.076Z,16.55
2024-05-09T06:43:16.351Z,16.67
2024-05-09T06:45:46.084Z,16.93
2024-05-09T06:48:15.768Z,17.21
2024-05-09T06:50:42.664Z,17.14
2024-05-09T06:53:12.026Z,17.37
2024-05-09T06:55:41.447Z,17.22
2024-05-09T06:58:11.598Z,17.14
2024-05-09T07:00:40.972Z,17.27
2024-05-09T07:03:12.949Z,17.14
2024-05-09T07:05:41.972Z,17.42
2024-05-09T07:08:11.861Z,17.57
2024-05-09T07:10:41.453Z,17.58
2024-05-09T07:13:11.790Z,17.77
2024-05-09T07:15:38.872Z,17.81
2024-05-09T07:18:13.736Z,17.77
2024-05-09T07:20:41.205Z,17.71
2024-05-09T07:23:11.610Z,18.03
2024-05-09T07:25:41.518Z,18.29
2024-05-09T07:28:13.710Z,17.82
2024-05-09T07:30:40.462Z,17.89
2024-05-09T07:33:10.019Z,17.94
2024-05-09T07:35:36.965Z,17.99
2024-05-09T07:38:06.805Z,17.70
2024-05-09T07:40:36.543Z,17.13
2024-05-09T07:43:11.503Z,17.70
2024-05-09T07:45:48.549Z,17.97
2024-05-09T07:52:37.562Z,18.26
2024-05-09T07:53:47.252Z,18.23
2024-05-09T07:56:18.561Z,18.49
2024-05-09T07:58:52.473Z,18.86
2024-05-09T08:01:19.744Z,18.96
2024-05-09T08:03:49.511Z,18.94
2024-05-09T08:06:16.501Z,19.47
2024-05-09T08:08:45.917Z,19.47
2024-05-09T08:11:12.768Z,19.75
2024-05-09T08:13:42.115Z,19.85
2024-05-09T08:16:11.634Z,19.69
2024-05-09T08:18:41.287Z,19.04
2024-05-09T08:21:08.197Z,18.97
2024-05-09T08:23:37.608Z,18.99
2024-05-09T08:26:04.927Z,19.08
2024-05-09T08:28:34.354Z,19.10
2024-05-09T08:31:04.224Z,18.99
2024-05-09T08:33:38.317Z,19.29
2024-05-09T08:36:05.727Z,19.13
2024-05-09T08:38:35.087Z,19.41
2024-05-09T08:41:03.723Z,19.41
2024-05-09T08:43:33.348Z,18.86
2024-05-09T08:46:00.367Z,19.08
2024-05-09T08:48:30.203Z,18.94
2024-05-09T08:51:01.427Z,19.35
2024-05-09T08:53:30.832Z,19.62
2024-05-09T08:56:00.772Z,19.50
2024-05-09T08:58:32.149Z,19.96
2024-05-09T09:01:00.228Z,20.42
2024-05-09T09:03:30.752Z,20.47
2024-05-09T09:06:02.589Z,20.45
2024-05-09T09:08:31.952Z,20.37
2024-05-09T09:10:59.426Z,20.61
2024-05-09T09:13:29.151Z,20.60
2024-05-09T09:15:58.865Z,21.02
2024-05-09T09:18:29.331Z,20.82
2024-05-09T09:20:56.632Z,21.16
2024-05-09T09:23:30.449Z,21.52
2024-05-09T09:25:58.738Z,21.59
2024-05-09T09:28:28.221Z,21.33
2024-05-09T09:31:01.418Z,20.91
2024-05-09T09:33:32.077Z,21.28
2024-05-09T09:35:59.244Z,21.91
2024-05-09T09:38:33.625Z,21.48
2024-05-09T09:41:01.758Z,21.77
2024-05-09T09:43:31.510Z,22.11
2024-05-09T09:45:59.920Z,22.29
2024-05-09T09:48:30.269Z,21.65
2024-05-09T09:50:57.472Z,21.78
2024-05-09T09:53:27.216Z,22.00
2024-05-09T09:55:56.786Z,22.47
2024-05-09T09:58:26.565Z,22.24
2024-05-09T10:00:53.419Z,22.01
2024-05-09T10:03:23.074Z,22.32
2024-05-09T10:05:50.086Z,21.89
2024-05-09T10:08:22.050Z,21.50
2024-05-09T10:10:49.007Z,21.17
2024-05-09T10:13:21.346Z,22.02
2024-05-09T10:15:51.620Z,21.55
2024-05-09T10:18:27.222Z,21.85
2024-05-09T10:20:56.374Z,21.94
2024-05-09T10:23:27.206Z,22.71
2024-05-09T10:26:04.567Z,22.72
2024-05-09T10:28:35.312Z,21.52
2024-05-09T10:31:06.160Z,22.02
2024-05-09T10:33:37.621Z,22.76
2024-05-09T10:36:07.744Z,22.90
2024-05-09T10:38:34.624Z,22.98
2024-05-09T10:41:05.676Z,22.08
2024-05-09T10:43:37.082Z,21.48
2024-05-09T10:46:07.291Z,21.78
2024-05-09T10:48:34.706Z,22.10
2024-05-09T10:51:04.200Z,22.09
2024-05-09T10:53:31.175Z,22.40
2024-05-09T10:56:01.336Z,21.74
2024-05-09T10:58:28.705Z,20.89
2024-05-09T11:01:02.456Z,21.28
2024-05-09T11:03:31.243Z,21.71
2024-05-09T11:06:00.721Z,21.94
2024-05-09T11:08:27.827Z,22.45
2024-05-09T11:10:59.254Z,22.11
2024-05-09T11:13:27.186Z,22.60
2024-05-09T11:15:56.608Z,22.66
2024-05-09T11:18:33.248Z,22.37
2024-05-09T11:21:02.999Z,22.37
2024-05-09T11:23:32.669Z,22.51
2024-05-09T11:25:59.580Z,22.91
2024-05-09T11:28:29.884Z,22.91
2024-05-09T11:31:05.434Z,23.09
2024-05-09T11:33:39.330Z,24.16
2024-05-09T11:36:06.728Z,23.95
2024-05-09T11:38:36.212Z,23.75
2024-05-09T11:41:03.349Z,23.55
2024-05-09T11:43:32.849Z,23.39
2024-05-09T11:46:00.313Z,24.18
2024-05-09T11:48:29.948Z,24.25
2024-05-09T11:50:59.525Z,24.93
2024-05-09T11:53:29.020Z,25.17
2024-05-09T11:55:55.766Z,25.36
2024-05-09T11:58:25.364Z,25.04
2024-05-09T12:00:57.833Z,24.89
2024-05-09T12:03:27.359Z,25.46
2024-05-09T12:05:54.272Z,25.84
2024-05-09T12:08:26.300Z,25.75
2024-05-09T12:10:53.497Z,25.10
2024-05-09T12:13:23.359Z,25.96
2024-05-09T12:15:50.181Z,26.41
2024-05-09T12:18:19.704Z,25.55
2024-05-09T12:20:46.624Z,25.71
2024-05-09T12:23:16.005Z,25.05
2024-05-09T12:25:45.390Z,23.92
2024-05-09T12:28:14.859Z,23.85
2024-05-09T12:30:42.063Z,24.13
2024-05-09T12:33:13.203Z,24.29
2024-05-09T12:35:43.235Z,24.37
2024-05-09T12:38:15.312Z,24.49
2024-05-09T12:40:45.320Z,25.39
2024-05-09T12:43:14.732Z,25.03
2024-05-09T12:45:41.525Z,25.11
2024-05-09T12:48:12.554Z,26.09
2024-05-09T12:50:40.651Z,25.74
2024-05-09T12:53:10.236Z,25.49
2024-05-09T12:55:44.809Z,25.56
2024-05-09T12:58:25.219Z,26.02
2024-05-09T13:00:52.635Z,25.10
2024-05-09T13:03:22.524Z,25.06
2024-05-09T13:05:49.749Z,25.33
2024-05-09T13:08:19.518Z,25.15
2024-05-09T13:10:46.705Z,25.62
2024-05-09T13:13:16.789Z,25.73
2024-05-09T13:15:46.535Z,25.99
2024-05-09T13:18:16.119Z,26.27
2024-05-09T13:20:42.887Z,26.16
2024-05-09T13:23:12.261Z,25.43
2024-05-09T13:25:40.085Z,25.16
2024-05-09T13:28:10.087Z,24.56
2024-05-09T13:30:40.895Z,25.06
2024-05-09T13:33:14.642Z,25.46
2024-05-09T13:35:46.698Z,25.66
2024-05-09T13:38:19.838Z,25.60
2024-05-09T13:40:47.211Z,25.98
2024-05-09T13:43:17.611Z,25.88
2024-05-09T13:45:44.843Z,25.59
2024-05-09T13:48:17.091Z,25.31
2024-05-09T13:50:46.215Z,25.19
2024-05-09T13:53:15.600Z,25.55
2024-05-09T13:55:42.552Z,25.12
2024-05-09T13:58:11.993Z,24.93
2024-05-09T14:00:46.194Z,24.98
2024-05-09T14:03:21.469Z,24.27
2024-05-09T14:05:50.098Z,23.97
2024-05-09T14:08:22.153Z,24.85
2024-05-09T14:10:50.012Z,25.90
2024-05-09T14:13:20.018Z,26.25
2024-05-09T14:15:47.091Z,26.47
2024-05-09T14:18:16.816Z,25.02
2024-05-09T14:20:46.333Z,25.10
2024-05-09T14:23:15.760Z,25.15
2024-05-09T14:25:43.935Z,25.59
2024-05-09T14:28:14.622Z,25.17
2024-05-09T14:30:41.911Z,25.22
2024-05-09T14:33:12.154Z,25.26
2024-05-09T14:35:39.577Z,25.21
2024-05-09T14:38:12.491Z,24.58
2024-05-09T14:40:43.086Z,24.08
2024-05-09T14:43:14.732Z,24.09
2024-05-09T14:45:43.120Z,24.56
2024-05-09T14:48:13.231Z,24.37
2024-05-09T14:50:40.914Z,25.03
2024-05-09T14:53:14.326Z,25.36
2024-05-09T14:55:42.949Z,26.19
2024-05-09T14:58:13.805Z,25.54
2024-05-09T15:00:46.771Z,25.54
2024-05-09T15:03:20.814Z,26.08
2024-05-09T15:05:48.767Z,26.32
2024-05-09T15:08:21.582Z,25.78
2024-05-09T15:10:50.114Z,25.16
2024-05-09T15:13:20.212Z,25.13
2024-05-09T15:15:47.412Z,25.09
2024-05-09T15:18:17.349Z,25.20
2024-05-09T15:20:44.787Z,24.78
2024-05-09T15:23:14.380Z,25.14
2024-05-09T15:25:44.713Z,25.09
2024-05-09T15:28:14.243Z,24.60
2024-05-09T15:30:45.428Z,25.01
2024-05-09T15:33:16.550Z,24.96
2024-05-09T15:35:44.777Z,24.90
2024-05-09T15:38:14.449Z,25.20
2024-05-09T15:40:44.265Z,25.39
2024-05-09T15:43:13.789Z,25.69
2024-05-09T15:45:41.507Z,25.29
2024-05-09T15:48:12.081Z,24.67
2024-05-09T15:50:41.450Z,24.25
2024-05-09T15:53:13.147Z,24.17
2024-05-09T15:55:43.227Z,24.13
2024-05-09T15:58:12.988Z,24.07
2024-05-09T16:00:42.699Z,23.83
2024-05-09T16:03:14.708Z,24.29
2024-05-09T16:05:43.435Z,24.25
2024-05-09T16:08:14.406Z,23.87
2024-05-09T16:10:46.041Z,24.14
2024-05-09T16:13:17.298Z,24.25
2024-05-09T16:15:44.682Z,24.03
2024-05-09T16:18:14.539Z,24.35
2024-05-09T16:20:43.227Z,24.55
2024-05-09T16:23:14.056Z,24.07
2024-05-09T16:25:46.270Z,24.67
2024-05-09T16:28:16.099Z,24.72
2024-05-09T16:30:42.953Z,25.03
2024-05-09T16:33:13.228Z,24.08
2024-05-09T16:35:40.503Z,23.94
2024-05-09T16:38:10.131Z,23.95
2024-05-09T16:40:40.184Z,23.84
2024-05-09T16:43:13.826Z,24.03
2024-05-09T16:45:41.743Z,23.94
2024-05-09T16:48:12.309Z,24.22
2024-05-09T16:50:39.265Z,24.58
2024-05-09T16:53:08.768Z,24.68
2024-05-09T16:55:36.174Z,24.99
2024-05-09T16:58:06.552Z,25.29
2024-05-09T17:00:41.368Z,25.68
2024-05-09T17:03:15.317Z,25.97
2024-05-09T17:05:43.369Z,25.35
2024-05-09T17:08:13.009Z,25.38
2024-05-09T17:10:39.850Z,25.07
2024-05-09T17:13:09.952Z,25.07
2024-05-09T17:15:42.310Z,25.10
2024-05-09T17:18:09.815Z,24.70
2024-05-09T17:20:39.283Z,24.66
2024-05-09T17:23:12.372Z,24.03
2024-05-09T17:25:42.222Z,24.04
2024-05-09T17:28:09.471Z,24.22
2024-05-09T17:30:42.831Z,23.95
2024-05-09T17:33:11.421Z,24.22
2024-05-09T17:35:41.948Z,24.37
2024-05-09T17:38:09.090Z,24.45
2024-05-09T17:40:39.371Z,24.60
2024-05-09T17:43:08.627Z,24.52
2024-05-09T17:45:42.554Z,24.29
2024-05-09T17:48:10.792Z,24.19
2024-05-09T17:50:41.989Z,24.31
2024-05-09T17:53:09.270Z,24.10
2024-05-09T17:55:38.724Z,23.97
2024-05-09T17:58:06.036Z,23.97
2024-05-09T18:00:40.043Z,23.91
2024-05-09T18:03:12.685Z,23.69
2024-05-09T18:05:44.417Z,23.61
2024-05-09T18:08:11.898Z,23.40
2024-05-09T18:10:42.499Z,23.22
2024-05-09T18:13:10.614Z,22.94
2024-05-09T18:15:40.576Z,22.90
2024-05-09T18:18:08.140Z,22.75
2024-05-09T18:20:44.426Z,22.61
2024-05-09T18:23:14.154Z,22.48
2024-05-09T18:25:44.652Z,22.36
2024-05-09T18:28:11.491Z,22.19
2024-05-09T18:30:41.549Z,22.08
2024-05-09T18:33:09.599Z,21.99
2024-05-09T18:35:41.928Z,21.90
2024-05-09T18:38:08.940Z,21.77
2024-05-09T18:40:39.756Z,21.69
2024-05-09T18:43:09.089Z,21.59
2024-05-09T18:45:39.218Z,21.43
2024-05-09T18:48:08.238Z,21.33
2024-05-09T18:50:41.760Z,21.18
2024-05-09T18:53:09.863Z,21.05
2024-05-09T18:55:39.464Z,20.93
2024-05-09T18:58:06.542Z,20.86
2024-05-09T19:00:38.949Z,20.71
2024-05-09T19:03:10.506Z,20.43
2024-05-09T19:05:46.020Z,20.36
2024-05-09T19:08:14.412Z,20.34
2024-05-09T19:10:45.645Z,20.25
2024-05-09T19:13:14.162Z,20.22
2024-05-09T19:15:44.947Z,20.10
2024-05-09T19:18:13.263Z,20.01
2024-05-09T19:20:46.352Z,20.00
2024-05-09T19:23:13.207Z,19.93
2024-05-09T19:25:42.803Z,19.84
2024-05-09T19:28:09.638Z,19.77
2024-05-09T19:30:41.908Z,19.75
2024-05-09T19:33:11.004Z,19.65
2024-05-09T19:35:41.620Z,19.55
2024-05-09T19:38:11.140Z,19.50
2024-05-09T19:40:40.793Z,19.43
2024-05-09T19:43:07.781Z,19.38
2024-05-09T19:45:37.308Z,19.36
2024-05-09T19:48:05.428Z,19.24
2024-05-09T19:50:41.879Z,19.22
2024-05-09T19:53:14.014Z,19.13
2024-05-09T19:55:43.489Z,19.08
2024-05-09T19:58:10.929Z,19.04
2024-05-09T20:00:43.118Z,18.99
2024-05-09T20:03:11.324Z,18.94
2024-05-09T20:05:41.016Z,18.86
2024-05-09T20:08:08.176Z,18.81
2024-05-09T20:10:40.475Z,18.75
2024-05-09T20:13:08.213Z,18.74
2024-05-09T20:15:38.778Z,18.71
2024-05-09T20:18:06.566Z,18.67
2024-05-09T20:20:41.213Z,18.61
2024-05-09T20:23:10.316Z,18.57
2024-05-09T20:25:42.480Z,18.56
2024-05-09T20:28:10.264Z,18.48
2024-05-09T20:30:39.945Z,18.47
2024-05-09T20:33:08.221Z,18.37
2024-05-09T20:35:38.730Z,18.34
2024-05-09T20:38:05.610Z,18.33
2024-05-09T20:40:38.258Z,18.26
2024-05-09T20:43:09.664Z,18.23
2024-05-09T20:45:40.178Z,18.22
2024-05-09T20:48:08.994Z,18.17
2024-05-09T20:50:41.534Z,18.10
2024-05-09T20:53:10.327Z,18.11
2024-05-09T20:55:39.792Z,18.04
2024-05-09T20:58:10.108Z,18.04
2024-05-09T21:00:43.218Z,18.01
2024-05-09T21:03:13.151Z,17.91
2024-05-09T21:05:43.463Z,17.90
2024-05-09T21:08:10.394Z,17.93
2024-05-09T21:10:39.937Z,17.86
2024-05-09T21:13:09.652Z,17.78
2024-05-09T21:15:39.214Z,17.78
2024-05-09T21:18:06.089Z,17.82
2024-05-09T21:20:37.386Z,17.81
2024-05-09T21:23:04.455Z,17.79
2024-05-09T21:25:33.913Z,17.77
2024-05-09T21:28:01.146Z,17.70
2024-05-09T21:30:41.261Z,17.73
2024-05-09T21:33:11.900Z,17.69
2024-05-09T21:35:43.391Z,17.64
2024-05-09T21:38:10.582Z,17.57
2024-05-09T21:40:40.070Z,17.55
2024-05-09T21:43:07.827Z,17.54
2024-05-09T21:45:40.218Z,17.59
2024-05-09T21:48:08.204Z,17.51
2024-05-09T21:50:41.105Z,17.50
2024-05-09T21:53:09.475Z,17.47
2024-05-09T21:55:38.954Z,17.51
2024-05-09T21:58:05.809Z,17.42
2024-05-09T22:00:38.070Z,17.45
2024-05-09T22:03:10.109Z,17.48
2024-05-09T22:05:43.432Z,17.43
2024-05-09T22:08:10.777Z,17.41
2024-05-09T22:10:40.283Z,17.43
2024-05-09T22:13:08.014Z,17.34
2024-05-09T22:15:40.025Z,17.35
2024-05-09T22:18:11.160Z,17.36
2024-05-09T22:20:44.874Z,17.38
2024-05-09T22:23:13.084Z,17.28
2024-05-09T22:25:42.608Z,17.29
2024-05-09T22:28:09.882Z,17.27
2024-05-09T22:30:40.375Z,17.31
2024-05-09T22:33:11.490Z,17.31
2024-05-09T22:35:41.893Z,17.26
2024-05-09T22:38:08.847Z,17.28
2024-05-09T22:40:47.404Z,17.27
2024-05-09T22:43:21.480Z,17.21
2024-05-09T22:45:53.741Z,17.17
2024-05-09T22:48:24.276Z,17.17
2024-05-09T22:50:54.434Z,17.15
2024-05-09T22:53:21.854Z,17.13
2024-05-09T22:55:51.264Z,17.17
2024-05-09T22:58:19.061Z,17.17
2024-05-09T23:00:48.599Z,17.12
2024-05-09T23:03:16.568Z,17.00
2024-05-09T23:05:48.680Z,16.98
2024-05-09T23:08:15.414Z,16.97
2024-05-09T23:10:44.883Z,16.94
2024-05-09T23:13:11.726Z,17.01
2024-05-09T23:15:41.295Z,16.92
2024-05-09T23:18:08.366Z,16.94
2024-05-09T23:20:39.875Z,16.92
2024-05-09T23:23:11.404Z,16.82
2024-05-09T23:25:42.074Z,16.85
2024-05-09T23:28:09.287Z,16.90
2024-05-09T23:30:40.816Z,16.84
2024-05-09T23:33:09.846Z,16.76
2024-05-09T23:35:39.599Z,16.87
2024-05-09T23:38:06.333Z,16.77
2024-05-09T23:40:40.787Z,16.85
2024-05-09T23:43:09.242Z,16.82
2024-05-09T23:45:39.164Z,16.81
2024-05-09T23:48:06.896Z,16.74
2024-05-09T23:50:38.511Z,16.74
2024-05-09T23:53:10.252Z,16.71
2024-05-09T23:55:40.560Z,16.70
2024-05-09T23:58:11.327Z,16.62
